Time;durP1;ratioP1;P1;durP2;ratioP2;P2;SDS_P1;SDS_P2;PMS_P1;PMS_P2;Temp;Humidity;BMP_temperature;BMP_pressure;BME280_temperature;BME280_humidity;BME280_pressure;Samples;Min_cycle;Max_cycle;Signal;HPM_P1;HPM_P2
2022/03/14 00:00:19;;;;;;;0.90;0.90;;;;;;;;;;5079778;28;20040;-73
2022/03/14 00:02:45;;;;;;;1.45;1.35;;;;;;;;;;5081766;28;20024;-74
2022/03/14 00:05:14;;;;;;;2.88;2.03;;;;;;;;;;5080472;28;20379;-73
2022/03/14 00:07:41;;;;;;;2.20;2.05;;;;;;;;;;5085952;28;20042;-74
2022/03/14 00:10:07;;;;;;;0.80;0.80;;;;;;;;;;5083463;28;20036;-74
2022/03/14 00:12:33;;;;;;;1.55;0.93;;;;;;;;;;5084922;28;20101;-74
2022/03/14 00:15:03;;;;;;;2.50;2.30;;;;;;;;;;5075549;28;20467;-74
2022/03/14 00:17:29;;;;;;;5.78;2.47;;;;;;;;;;5074579;28;20059;-74
2022/03/14 00:19:58;;;;;;;10.98;1.90;;;;;;;;;;5081417;28;20471;-74
2022/03/14 00:22:25;;;;;;;1.60;1.23;;;;;;;;;;5081000;28;20078;-74
2022/03/14 00:24:50;;;;;;;2.78;2.38;;;;;;;;;;5090585;28;20020;-74
2022/03/14 00:27:16;;;;;;;2.38;2.17;;;;;;;;;;5090731;28;20036;-73
2022/03/14 00:29:42;;;;;;;3.65;3.28;;;;;;;;;;5084964;28;20036;-74
2022/03/14 00:32:08;;;;;;;2.30;1.50;;;;;;;;;;5089364;28;20024;-73
2022/03/14 00:34:34;;;;;;;1.27;0.95;;;;;;;;;;5083784;28;20132;-73
2022/03/14 00:37:00;;;;;;;4.32;2.40;;;;;;;;;;5081827;28;21179;-73
2022/03/14 00:39:26;;;;;;;3.20;1.92;;;;;;;;;;5082573;28;20051;-73
2022/03/14 00:41:52;;;;;;;1.35;1.30;;;;;;;;;;5087847;28;20056;-73
2022/03/14 00:44:18;;;;;;;0.98;0.98;;;;;;;;;;5081407;28;20032;-73
2022/03/14 00:46:44;;;;;;;2.35;2.13;;;;;;;;;;5077235;28;20082;-73
2022/03/14 00:49:11;;;;;;;1.60;1.45;;;;;;;;;;5092529;28;20048;-74
2022/03/14 00:51:37;;;;;;;3.47;2.65;;;;;;;;;;5087273;28;20519;-73
2022/03/14 00:54:03;;;;;;;1.55;1.45;;;;;;;;;;5081223;28;20054;-74
2022/03/14 00:56:29;;;;;;;4.25;2.25;;;;;;;;;;5087059;28;20045;-73
2022/03/14 00:58:58;;;;;;;1.88;1.70;;;;;;;;;;5082843;28;20027;-74
2022/03/14 01:01:25;;;;;;;4.95;1.70;;;;;;;;;;5084808;28;20043;-74
2022/03/14 01:03:51;;;;;;;1.35;1.25;;;;;;;;;;5087355;28;20479;-73
2022/03/14 01:06:17;;;;;;;0.82;0.82;;;;;;;;;;5088646;28;20067;-73
2022/03/14 01:08:43;;;;;;;2.65;1.20;;;;;;;;;;5082763;28;20426;-73
2022/03/14 01:11:09;;;;;;;1.55;1.45;;;;;;;;;;5091709;28;20118;-74
2022/03/14 01:13:35;;;;;;;0.95;0.95;;;;;;;;;;5092871;28;20036;-73
2022/03/14 01:16:02;;;;;;;5.90;1.60;;;;;;;;;;5079395;28;20028;-73
2022/03/14 01:18:28;;;;;;;3.95;2.45;;;;;;;;;;5079633;28;20025;-73
2022/03/14 01:20:54;;;;;;;5.15;3.13;;;;;;;;;;5083092;28;20027;-73
2022/03/14 01:23:20;;;;;;;1.05;1.05;;;;;;;;;;5081057;28;20059;-74
2022/03/14 01:25:46;;;;;;;6.53;2.47;;;;;;;;;;5091336;28;20431;-73
2022/03/14 01:28:12;;;;;;;1.33;1.33;;;;;;;;;;5081944;28;20501;-74
2022/03/14 01:30:40;;;;;;;3.72;1.98;;;;;;;;;;5075325;28;20032;-74
2022/03/14 01:33:06;;;;;;;5.18;3.22;;;;;;;;;;5085734;28;20027;-73
2022/03/14 01:35:32;;;;;;;1.80;1.70;;;;;;;;;;5075116;28;20024;-73
2022/03/14 01:37:58;;;;;;;1.75;1.65;;;;;;;;;;5084828;28;20490;-74
2022/03/14 01:40:25;;;;;;;5.38;2.22;;;;;;;;;;5080333;28;20028;-73
2022/03/14 01:42:51;;;;;;;1.23;1.13;;;;;;;;;;5083640;28;20031;-73
2022/03/14 01:45:18;;;;;;;3.22;2.42;;;;;;;;;;5079330;28;20068;-74
2022/03/14 01:47:45;;;;;;;1.65;1.02;;;;;;;;;;5073883;28;20032;-74
2022/03/14 01:50:12;;;;;;;3.70;2.83;;;;;;;;;;5084462;28;20050;-73
2022/03/14 01:52:38;;;;;;;2.60;1.95;;;;;;;;;;5084670;28;20447;-73
2022/03/14 01:55:04;;;;;;;3.50;1.50;;;;;;;;;;5080666;28;20115;-73
2022/03/14 01:57:30;;;;;;;0.75;0.75;;;;;;;;;;5079397;28;20526;-73
2022/03/14 01:59:56;;;;;;;4.93;2.25;;;;;;;;;;5083511;28;20041;-73
2022/03/14 02:02:22;;;;;;;2.47;2.15;;;;;;;;;;5089616;28;20027;-74
2022/03/14 02:04:48;;;;;;;0.90;0.80;;;;;;;;;;5076901;28;20089;-74
2022/03/14 02:07:14;;;;;;;14.50;3.25;;;;;;;;;;5080319;28;20040;-73
2022/03/14 02:09:40;;;;;;;4.68;3.63;;;;;;;;;;5072538;28;20444;-73
2022/03/14 02:12:07;;;;;;;0.90;0.88;;;;;;;;;;5075403;28;20036;-74
2022/03/14 02:14:39;;;;;;;1.05;1.02;;;;;;;;;;5086465;28;20027;-73
2022/03/14 02:17:05;;;;;;;2.80;2.08;;;;;;;;;;5089505;28;20024;-73
2022/03/14 02:19:32;;;;;;;1.88;1.38;;;;;;;;;;5090056;28;20024;-73
2022/03/14 02:21:58;;;;;;;4.90;2.78;;;;;;;;;;5077917;28;20380;-73
2022/03/14 02:24:28;;;;;;;2.35;2.15;;;;;;;;;;5083870;28;20068;-73
2022/03/14 02:26:54;;;;;;;2.08;1.80;;;;;;;;;;5078547;28;20089;-73
2022/03/14 02:29:20;;;;;;;1.90;1.60;;;;;;;;;;5087382;28;20466;-73
2022/03/14 02:31:47;;;;;;;1.75;1.65;;;;;;;;;;5075780;28;20058;-73
2022/03/14 02:34:13;;;;;;;2.35;2.05;;;;;;;;;;5088780;28;20053;-73
2022/03/14 02:36:39;;;;;;;3.45;1.10;;;;;;;;;;5076492;28;20111;-74
2022/03/14 02:39:06;;;;;;;1.33;1.23;;;;;;;;;;5089364;28;20024;-73
2022/03/14 02:41:32;;;;;;;3.38;2.45;;;;;;;;;;5085208;28;20024;-73
2022/03/14 02:43:58;;;;;;;3.78;2.50;;;;;;;;;;5075799;28;20077;-74
2022/03/14 02:46:24;;;;;;;0.90;0.90;;;;;;;;;;5085697;28;20020;-73
2022/03/14 02:48:50;;;;;;;2.35;1.88;;;;;;;;;;5077487;28;20066;-74
2022/03/14 02:51:16;;;;;;;3.85;1.38;;;;;;;;;;5075201;28;20086;-73
2022/03/14 02:53:42;;;;;;;4.22;2.08;;;;;;;;;;5077997;28;20036;-73
2022/03/14 02:56:08;;;;;;;1.60;1.08;;;;;;;;;;5080049;28;20025;-74
2022/03/14 02:58:38;;;;;;;0.30;0.30;;;;;;;;;;5079667;28;20523;-74
2022/03/14 03:01:04;;;;;;;0.85;0.85;;;;;;;;;;5086536;28;20028;-74
2022/03/14 03:03:30;;;;;;;1.70;1.52;;;;;;;;;;5088138;28;20024;-73
2022/03/14 03:05:56;;;;;;;2.33;2.13;;;;;;;;;;5087996;28;20122;-74
2022/03/14 03:08:22;;;;;;;1.73;1.60;;;;;;;;;;5087058;28;20039;-74
2022/03/14 03:10:49;;;;;;;13.23;1.38;;;;;;;;;;5075033;28;20044;-74
2022/03/14 03:13:16;;;;;;;2.97;2.00;;;;;;;;;;5070362;28;20055;-74
2022/03/14 03:15:42;;;;;;;0.38;0.38;;;;;;;;;;5078121;28;20498;-73
2022/03/14 03:18:12;;;;;;;2.08;1.27;;;;;;;;;;5077214;28;20048;-74
2022/03/14 03:20:38;;;;;;;1.58;1.48;;;;;;;;;;5075455;28;20043;-73
2022/03/14 03:23:04;;;;;;;0.75;0.75;;;;;;;;;;5075075;28;20108;-74
2022/03/14 03:25:30;;;;;;;2.50;2.25;;;;;;;;;;5083323;28;20031;-73
2022/03/14 03:27:55;;;;;;;1.17;0.55;;;;;;;;;;5087104;28;20414;-73
2022/03/14 03:30:21;;;;;;;1.02;1.02;;;;;;;;;;5085163;28;20035;-73
2022/03/14 03:32:47;;;;;;;0.80;0.80;;;;;;;;;;5088757;28;20050;-73
2022/03/14 03:35:13;;;;;;;2.28;1.67;;;;;;;;;;5077103;28;20020;-73
2022/03/14 03:37:39;;;;;;;5.40;2.03;;;;;;;;;;5078121;28;20031;-74
2022/03/14 03:40:06;;;;;;;2.45;1.75;;;;;;;;;;5084340;28;20029;-73
2022/03/14 03:42:32;;;;;;;0.82;0.82;;;;;;;;;;5088067;28;20024;-73
2022/03/14 03:44:58;;;;;;;0.60;0.60;;;;;;;;;;5084614;28;20047;-73
2022/03/14 03:47:24;;;;;;;4.40;2.17;;;;;;;;;;5078150;28;20399;-74
2022/03/14 03:49:50;;;;;;;2.08;1.95;;;;;;;;;;5080289;28;20405;-73
2022/03/14 03:52:16;;;;;;;1.63;1.52;;;;;;;;;;5082993;28;20051;-73
2022/03/14 03:54:42;;;;;;;0.50;0.50;;;;;;;;;;5075164;28;20024;-74
2022/03/14 03:57:08;;;;;;;1.48;1.05;;;;;;;;;;5075153;28;20031;-74
2022/03/14 03:59:33;;;;;;;1.00;1.00;;;;;;;;;;5080158;28;20027;-74
2022/03/14 04:02:01;;;;;;;1.38;1.27;;;;;;;;;;5089367;28;20034;-73
2022/03/14 04:04:28;;;;;;;4.95;2.00;;;;;;;;;;5086491;28;20028;-73
2022/03/14 04:06:56;;;;;;;1.45;1.10;;;;;;;;;;5088392;28;20052;-74
2022/03/14 04:09:22;;;;;;;2.42;1.33;;;;;;;;;;5076007;28;20132;-73
2022/03/14 04:11:48;;;;;;;9.75;3.35;;;;;;;;;;5081842;28;20127;-73
2022/03/14 04:14:15;;;;;;;3.22;2.38;;;;;;;;;;5086778;28;20016;-73
2022/03/14 04:16:41;;;;;;;3.08;2.50;;;;;;;;;;5080894;28;20024;-73
2022/03/14 04:19:07;;;;;;;2.38;1.48;;;;;;;;;;5084983;28;20079;-73
2022/03/14 04:21:34;;;;;;;3.80;1.98;;;;;;;;;;5069986;28;20033;-73
2022/03/14 04:24:03;;;;;;;0.70;0.70;;;;;;;;;;5081815;28;20032;-73
2022/03/14 04:26:29;;;;;;;7.05;2.33;;;;;;;;;;5086064;28;20051;-74
2022/03/14 04:28:55;;;;;;;1.13;1.13;;;;;;;;;;5072560;28;20479;-73
2022/03/14 04:31:21;;;;;;;0.43;0.43;;;;;;;;;;5084831;28;20103;-73
2022/03/14 04:33:47;;;;;;;3.90;3.30;;;;;;;;;;5078739;28;20036;-73
2022/03/14 04:36:13;;;;;;;1.27;1.17;;;;;;;;;;5071361;28;20033;-74
2022/03/14 04:38:40;;;;;;;21.13;1.88;;;;;;;;;;5076612;28;20025;-73
2022/03/14 04:41:06;;;;;;;2.30;1.95;;;;;;;;;;5086640;28;21222;-74
2022/03/14 04:43:32;;;;;;;2.80;1.42;;;;;;;;;;5074214;28;20029;-74
2022/03/14 04:45:58;;;;;;;2.10;1.92;;;;;;;;;;5078688;28;20091;-74
2022/03/14 04:48:24;;;;;;;1.92;1.33;;;;;;;;;;5086738;28;20043;-73
2022/03/14 04:50:50;;;;;;;7.40;3.50;;;;;;;;;;5088517;28;20501;-74
2022/03/14 04:53:17;;;;;;;11.52;1.48;;;;;;;;;;5079718;28;20047;-73
2022/03/14 04:55:43;;;;;;;0.35;0.35;;;;;;;;;;5085535;28;20027;-73
2022/03/14 04:58:14;;;;;;;5.00;1.70;;;;;;;;;;5081713;28;20024;-73
2022/03/14 05:00:40;;;;;;;0.95;0.85;;;;;;;;;;5078512;28;20045;-74
2022/03/14 05:03:07;;;;;;;1.63;1.52;;;;;;;;;;5082063;28;20054;-73
2022/03/14 05:05:33;;;;;;;1.98;1.85;;;;;;;;;;5078294;28;20039;-73
2022/03/14 05:07:59;;;;;;;0.73;0.70;;;;;;;;;;5083209;28;20028;-73
2022/03/14 05:10:25;;;;;;;1.35;1.23;;;;;;;;;;5081012;28;20077;-73
2022/03/14 05:12:51;;;;;;;1.48;1.38;;;;;;;;;;5082834;28;20288;-73
2022/03/14 05:15:17;;;;;;;2.72;2.10;;;;;;;;;;5077137;28;20039;-74
2022/03/14 05:17:43;;;;;;;2.42;2.22;;;;;;;;;;5089608;28;20032;-73
2022/03/14 05:20:10;;;;;;;4.63;4.15;;;;;;;;;;5085212;28;20024;-73
2022/03/14 05:22:46;;;;;;;19.98;2.83;;;;;;;;;;5087977;28;20047;-74
2022/03/14 05:25:12;;;;;;;3.53;2.42;;;;;;;;;;5074534;28;20024;-74
2022/03/14 05:27:39;;;;;;;3.10;1.95;;;;;;;;;;5087539;28;20028;-73
2022/03/14 05:30:08;;;;;;;1.58;1.27;;;;;;;;;;5081458;28;20036;-73
2022/03/14 05:32:34;;;;;;;9.65;2.50;;;;;;;;;;5084142;28;20051;-73
2022/03/14 05:35:00;;;;;;;2.10;1.95;;;;;;;;;;5079583;28;20088;-73
2022/03/14 05:37:26;;;;;;;2.38;1.67;;;;;;;;;;5079399;28;20052;-73
2022/03/14 05:39:52;;;;;;;3.13;2.35;;;;;;;;;;5081683;28;20028;-73
2022/03/14 05:42:18;;;;;;;2.63;1.80;;;;;;;;;;5087878;28;20486;-73
2022/03/14 05:44:44;;;;;;;1.27;1.17;;;;;;;;;;5078100;28;20109;-73
2022/03/14 05:47:10;;;;;;;1.25;1.25;;;;;;;;;;5079391;28;20024;-72
2022/03/14 05:49:36;;;;;;;1.65;1.55;;;;;;;;;;5074059;28;20044;-72
2022/03/14 05:52:02;;;;;;;1.42;1.33;;;;;;;;;;5079362;28;20021;-72
2022/03/14 05:54:28;;;;;;;1.73;1.63;;;;;;;;;;5083328;28;20391;-72
2022/03/14 05:56:54;;;;;;;1.38;1.27;;;;;;;;;;5086328;28;20012;-72
2022/03/14 05:59:20;;;;;;;0.55;0.55;;;;;;;;;;5074917;28;20471;-73
2022/03/14 06:01:50;;;;;;;3.30;1.80;;;;;;;;;;5084495;28;20696;-72
2022/03/14 06:04:16;;;;;;;1.67;1.60;;;;;;;;;;5088469;28;20391;-73
2022/03/14 06:06:42;;;;;;;0.68;0.68;;;;;;;;;;5085745;28;20037;-72
2022/03/14 06:09:08;;;;;;;4.32;2.15;;;;;;;;;;5074461;28;20099;-72
2022/03/14 06:11:34;;;;;;;2.20;1.98;;;;;;;;;;5086057;28;20032;-72
2022/03/14 06:14:00;;;;;;;3.35;2.22;;;;;;;;;;5073612;28;20483;-73
2022/03/14 06:16:26;;;;;;;1.63;1.52;;;;;;;;;;5088328;28;20036;-72
2022/03/14 06:18:52;;;;;;;1.27;1.25;;;;;;;;;;5090253;28;20032;-72
2022/03/14 06:21:18;;;;;;;1.65;0.82;;;;;;;;;;5084627;28;20028;-73
2022/03/14 06:23:44;;;;;;;0.38;0.38;;;;;;;;;;5085356;28;20111;-72
2022/03/14 06:26:10;;;;;;;1.58;1.48;;;;;;;;;;5084211;28;20107;-73
2022/03/14 06:28:36;;;;;;;1.20;1.20;;;;;;;;;;5098294;28;20054;-72
2022/03/14 06:31:02;;;;;;;1.90;1.80;;;;;;;;;;5080192;28;20447;-72
2022/03/14 06:33:28;;;;;;;3.17;2.88;;;;;;;;;;5088666;28;20012;-72
2022/03/14 06:35:54;;;;;;;1.75;1.65;;;;;;;;;;5084968;28;20538;-72
2022/03/14 06:38:20;;;;;;;1.00;1.00;;;;;;;;;;5087080;28;20024;-72
2022/03/14 06:40:47;;;;;;;1.75;1.33;;;;;;;;;;5088279;28;20379;-69
2022/03/14 06:43:17;;;;;;;1.17;1.08;;;;;;;;;;5082191;28;20103;-69
2022/03/14 06:45:46;;;;;;;1.45;1.35;;;;;;;;;;5081571;28;20043;-68
2022/03/14 06:48:12;;;;;;;0.60;0.60;;;;;;;;;;5081303;28;20031;-68
2022/03/14 06:50:38;;;;;;;1.75;1.15;;;;;;;;;;5078370;28;20024;-70
2022/03/14 06:53:04;;;;;;;4.72;1.92;;;;;;;;;;5082363;28;20017;-68
2022/03/14 06:55:33;;;;;;;2.75;2.15;;;;;;;;;;5068341;28;20024;-69
2022/03/14 06:58:00;;;;;;;1.08;0.98;;;;;;;;;;5087472;28;20020;-69
2022/03/14 07:00:27;;;;;;;0.70;0.70;;;;;;;;;;5074491;28;20166;-68
2022/03/14 07:02:53;;;;;;;6.00;2.35;;;;;;;;;;5077799;28;20035;-68
2022/03/14 07:05:24;;;;;;;3.10;2.83;;;;;;;;;;5070715;28;20044;-70
2022/03/14 07:07:53;;;;;;;1.40;1.25;;;;;;;;;;5069161;28;20035;-70
2022/03/14 07:10:19;;;;;;;1.38;1.27;;;;;;;;;;5076452;28;20711;-70
2022/03/14 07:12:46;;;;;;;1.15;1.13;;;;;;;;;;5080298;28;20108;-69
2022/03/14 07:15:16;;;;;;;4.20;3.22;;;;;;;;;;5078331;28;20036;-70
2022/03/14 07:17:42;;;;;;;4.63;2.10;;;;;;;;;;5078549;28;20601;-69
2022/03/14 07:20:09;;;;;;;5.60;2.40;;;;;;;;;;5083506;28;20020;-70
2022/03/14 07:22:48;;;;;;;0.70;0.70;;;;;;;;;;5071518;28;20726;-70
2022/03/14 07:25:14;;;;;;;2.28;1.40;;;;;;;;;;5075591;28;20035;-70
2022/03/14 07:27:40;;;;;;;5.18;2.45;;;;;;;;;;5074082;28;20058;-70
2022/03/14 07:30:26;;;;;;;1.88;1.77;;;;;;;;;;5066114;28;20036;-76
2022/03/14 07:32:52;;;;;;;8.45;1.45;;;;;;;;;;5065074;28;20581;-72
2022/03/14 07:35:19;;;;;;;3.20;1.55;;;;;;;;;;5075520;28;20108;-73
2022/03/14 07:37:45;;;;;;;1.42;1.33;;;;;;;;;;5077264;28;20050;-72
2022/03/14 07:40:11;;;;;;;2.17;1.77;;;;;;;;;;5080468;28;20035;-72
2022/03/14 07:42:41;;;;;;;1.10;1.02;;;;;;;;;;5065500;28;20479;-74
2022/03/14 07:45:08;;;;;;;2.05;1.25;;;;;;;;;;5066312;28;20030;-79
2022/03/14 07:47:34;;;;;;;2.75;1.55;;;;;;;;;;5077327;28;20115;-76
2022/03/14 07:50:00;;;;;;;1.55;1.40;;;;;;;;;;5081780;28;20073;-73
2022/03/14 07:52:26;;;;;;;1.42;1.40;;;;;;;;;;5071702;28;20020;-73
2022/03/14 07:54:52;;;;;;;1.88;1.73;;;;;;;;;;5077516;28;20016;-73
2022/03/14 07:57:18;;;;;;;2.22;1.63;;;;;;;;;;5084184;28;20020;-73
2022/03/14 07:59:46;;;;;;;2.13;1.15;;;;;;;;;;5085773;28;20032;-73
2022/03/14 08:02:12;;;;;;;0.82;0.82;;;;;;;;;;5064405;28;20231;-72
2022/03/14 08:04:39;;;;;;;3.20;2.15;;;;;;;;;;5064971;28;20048;-74
2022/03/14 08:07:05;;;;;;;1.15;1.08;;;;;;;;;;5077303;28;20124;-72
2022/03/14 08:09:32;;;;;;;0.57;0.57;;;;;;;;;;5069466;28;20114;-71
2022/03/14 08:12:04;;;;;;;3.60;1.85;;;;;;;;;;5080290;28;20036;-72
2022/03/14 08:14:31;;;;;;;0.70;0.70;;;;;;;;;;5073589;28;20240;-72
2022/03/14 08:16:56;;;;;;;4.70;3.33;;;;;;;;;;5071212;28;20017;-71
2022/03/14 08:19:22;;;;;;;4.05;2.75;;;;;;;;;;5076344;28;20114;-71
2022/03/14 08:21:48;;;;;;;1.13;1.13;;;;;;;;;;5067830;28;20031;-71
2022/03/14 08:24:14;;;;;;;1.70;1.60;;;;;;;;;;5072973;28;20511;-71
2022/03/14 08:26:42;;;;;;;0.70;0.70;;;;;;;;;;5080108;28;20119;-71
2022/03/14 08:29:08;;;;;;;3.60;1.80;;;;;;;;;;5077087;28;20032;-71
2022/03/14 08:31:35;;;;;;;1.33;0.98;;;;;;;;;;5075512;28;20390;-71
2022/03/14 08:34:01;;;;;;;1.70;1.48;;;;;;;;;;5074958;28;20030;-71
2022/03/14 08:36:27;;;;;;;1.48;1.38;;;;;;;;;;5074616;28;20031;-71
2022/03/14 08:38:53;;;;;;;3.17;2.45;;;;;;;;;;5070742;28;20394;-71
2022/03/14 08:41:19;;;;;;;1.13;0.57;;;;;;;;;;5084875;28;20032;-71
2022/03/14 08:43:45;;;;;;;1.13;1.05;;;;;;;;;;5075602;28;20058;-71
2022/03/14 08:46:12;;;;;;;0.90;0.52;;;;;;;;;;5080723;28;20028;-71
2022/03/14 08:48:38;;;;;;;0.73;0.73;;;;;;;;;;5074644;28;20069;-71
2022/03/14 08:51:04;;;;;;;2.85;1.55;;;;;;;;;;5081693;28;20113;-72
2022/03/14 08:53:31;;;;;;;0.98;0.98;;;;;;;;;;5084573;28;20613;-72
2022/03/14 08:55:56;;;;;;;4.30;1.65;;;;;;;;;;5078732;28;20024;-71
2022/03/14 08:58:23;;;;;;;1.88;1.77;;;;;;;;;;5076758;28;20029;-72
2022/03/14 09:00:49;;;;;;;1.52;1.20;;;;;;;;;;5078522;28;20021;-71
2022/03/14 09:03:15;;;;;;;1.77;1.58;;;;;;;;;;5074935;28;20036;-72
2022/03/14 09:05:42;;;;;;;2.40;1.73;;;;;;;;;;5079525;28;20036;-71
2022/03/14 09:08:08;;;;;;;1.98;1.17;;;;;;;;;;5074951;28;20040;-71
2022/03/14 09:10:36;;;;;;;2.45;1.90;;;;;;;;;;5074313;28;20038;-71
2022/03/14 09:13:03;;;;;;;2.05;1.52;;;;;;;;;;5073436;28;20030;-72
2022/03/14 09:15:29;;;;;;;0.45;0.45;;;;;;;;;;5066360;28;20695;-71
2022/03/14 09:17:57;;;;;;;3.75;3.03;;;;;;;;;;5073645;28;20020;-72
2022/03/14 09:20:24;;;;;;;0.47;0.47;;;;;;;;;;5082942;28;20024;-72
2022/03/14 09:22:51;;;;;;;0.88;0.75;;;;;;;;;;5072412;28;20513;-71
2022/03/14 09:25:17;;;;;;;0.63;0.63;;;;;;;;;;5067893;28;20434;-71
2022/03/14 09:27:43;;;;;;;1.38;1.27;;;;;;;;;;5072371;28;20475;-71
2022/03/14 09:30:09;;;;;;;2.58;1.15;;;;;;;;;;5077158;28;20036;-71
2022/03/14 09:32:36;;;;;;;0.40;0.40;;;;;;;;;;5075172;28;20028;-71
2022/03/14 09:35:03;;;;;;;2.40;1.23;;;;;;;;;;5083726;28;20028;-72
2022/03/14 09:37:29;;;;;;;10.07;2.67;;;;;;;;;;5070249;28;21069;-72
2022/03/14 09:39:55;;;;;;;1.30;1.15;;;;;;;;;;5073871;28;20433;-73
2022/03/14 09:42:22;;;;;;;1.75;1.27;;;;;;;;;;5072424;28;20550;-75
2022/03/14 09:44:53;;;;;;;5.95;2.08;;;;;;;;;;5078358;28;20072;-71
2022/03/14 09:47:19;;;;;;;2.63;2.13;;;;;;;;;;5075596;28;20029;-71
2022/03/14 09:49:46;;;;;;;1.48;1.38;;;;;;;;;;5077654;28;20029;-70
2022/03/14 09:52:12;;;;;;;1.38;1.27;;;;;;;;;;5082588;28;20032;-71
2022/03/14 09:54:38;;;;;;;0.52;0.52;;;;;;;;;;5072680;28;20427;-71
2022/03/14 09:57:04;;;;;;;0.82;0.82;;;;;;;;;;5084082;28;20157;-71
2022/03/14 09:59:30;;;;;;;3.88;1.85;;;;;;;;;;5088868;28;20027;-71
2022/03/14 10:01:56;;;;;;;1.00;0.95;;;;;;;;;;5086514;28;20040;-71
2022/03/14 10:04:22;;;;;;;1.95;1.20;;;;;;;;;;5078887;28;20035;-71
2022/03/14 10:06:49;;;;;;;4.80;3.08;;;;;;;;;;5070798;28;20051;-71
2022/03/14 10:09:15;;;;;;;4.07;3.35;;;;;;;;;;5081704;28;20020;-71
2022/03/14 10:11:41;;;;;;;4.57;2.30;;;;;;;;;;5076819;28;20043;-72
2022/03/14 10:14:10;;;;;;;4.05;1.38;;;;;;;;;;5083360;28;20020;-71
2022/03/14 10:16:37;;;;;;;2.63;2.03;;;;;;;;;;5079840;28;20511;-71
2022/03/14 10:19:07;;;;;;;1.65;1.10;;;;;;;;;;5079252;28;20036;-71
2022/03/14 10:21:33;;;;;;;3.05;2.55;;;;;;;;;;5072611;28;20027;-73
2022/03/14 10:23:59;;;;;;;0.88;0.88;;;;;;;;;;5075665;28;20028;-73
2022/03/14 10:26:25;;;;;;;3.10;1.70;;;;;;;;;;5077660;28;20020;-73
2022/03/14 10:28:55;;;;;;;1.73;1.63;;;;;;;;;;5068071;28;20128;-72
2022/03/14 10:31:29;;;;;;;3.80;1.25;;;;;;;;;;5079766;28;20553;-72
2022/03/14 10:34:07;;;;;;;2.05;1.83;;;;;;;;;;5082870;28;20124;-73
2022/03/14 10:36:45;;;;;;;2.20;1.48;;;;;;;;;;5083539;28;20027;-72
2022/03/14 10:39:16;;;;;;;1.45;1.35;;;;;;;;;;5065131;28;20023;-72
2022/03/14 10:41:44;;;;;;;1.92;1.17;;;;;;;;;;5076491;28;20493;-73
2022/03/14 10:44:10;;;;;;;0.95;0.95;;;;;;;;;;5069231;28;20077;-75
2022/03/14 10:46:42;;;;;;;1.60;1.50;;;;;;;;;;5075138;28;20500;-72
2022/03/14 10:49:10;;;;;;;4.45;1.92;;;;;;;;;;5071892;28;20089;-73
2022/03/14 10:51:51;;;;;;;1.92;1.23;;;;;;;;;;5069756;28;20111;-72
2022/03/14 10:54:17;;;;;;;1.38;1.25;;;;;;;;;;5073394;28;20036;-73
2022/03/14 10:56:59;;;;;;;2.25;1.60;;;;;;;;;;5078762;28;20061;-73
2022/03/14 10:59:34;;;;;;;1.13;1.00;;;;;;;;;;5073639;28;20105;-72
2022/03/14 11:02:00;;;;;;;1.05;1.02;;;;;;;;;;5071615;28;20390;-72
2022/03/14 11:04:27;;;;;;;1.30;0.90;;;;;;;;;;5076426;28;20495;-72
2022/03/14 11:06:59;;;;;;;0.75;0.68;;;;;;;;;;5080517;28;20044;-73
2022/03/14 11:09:41;;;;;;;1.10;0.85;;;;;;;;;;5076501;28;20919;-72
2022/03/14 11:12:08;;;;;;;1.05;1.05;;;;;;;;;;5068243;28;20127;-73
2022/03/14 11:14:34;;;;;;;2.25;1.35;;;;;;;;;;5083900;28;20058;-72
2022/03/14 11:17:17;;;;;;;1.67;1.58;;;;;;;;;;5085831;28;20020;-72
2022/03/14 11:19:43;;;;;;;1.67;0.90;;;;;;;;;;5079705;28;20024;-73
2022/03/14 11:22:10;;;;;;;5.22;2.13;;;;;;;;;;5077031;28;20028;-72
2022/03/14 11:24:39;;;;;;;1.67;1.58;;;;;;;;;;5078991;28;20080;-72
2022/03/14 11:27:06;;;;;;;2.63;1.30;;;;;;;;;;5071584;28;20028;-73
2022/03/14 11:29:33;;;;;;;1.27;1.13;;;;;;;;;;5070340;28;20056;-72
2022/03/14 11:31:59;;;;;;;0.73;0.73;;;;;;;;;;5084106;28;20212;-73
2022/03/14 11:34:29;;;;;;;3.20;1.75;;;;;;;;;;5080444;28;20025;-73
2022/03/14 11:36:54;;;;;;;2.45;1.60;;;;;;;;;;5085263;28;20020;-72
2022/03/14 11:39:21;;;;;;;0.90;0.90;;;;;;;;;;5078359;28;20109;-73
2022/03/14 11:41:53;;;;;;;3.67;2.05;;;;;;;;;;5075038;28;20015;-73
2022/03/14 11:44:19;;;;;;;2.58;1.52;;;;;;;;;;5073651;28;20066;-73
2022/03/14 11:46:45;;;;;;;1.77;1.67;;;;;;;;;;5073749;28;20025;-73
2022/03/14 11:49:15;;;;;;;1.30;1.20;;;;;;;;;;5072946;28;20047;-72
2022/03/14 11:51:42;;;;;;;3.25;1.85;;;;;;;;;;5071767;28;20031;-72
2022/03/14 11:54:11;;;;;;;5.07;1.85;;;;;;;;;;5078906;28;20016;-73
2022/03/14 11:56:38;;;;;;;2.05;1.92;;;;;;;;;;5073765;28;20020;-73
2022/03/14 11:59:07;;;;;;;1.58;1.02;;;;;;;;;;5080240;28;20024;-73
2022/03/14 12:01:34;;;;;;;2.17;1.70;;;;;;;;;;5075718;28;20027;-72
2022/03/14 12:04:02;;;;;;;2.03;1.00;;;;;;;;;;5076273;28;20031;-73
2022/03/14 12:06:46;;;;;;;0.65;0.65;;;;;;;;;;5078899;28;20458;-72
2022/03/14 12:09:27;;;;;;;1.33;1.23;;;;;;;;;;5075924;28;20033;-72
2022/03/14 12:11:57;;;;;;;0.65;0.65;;;;;;;;;;5080586;28;20427;-73
2022/03/14 12:14:42;;;;;;;1.20;0.80;;;;;;;;;;5076388;28;20028;-72
2022/03/14 12:17:14;;;;;;;4.75;1.75;;;;;;;;;;5069650;28;20028;-72
2022/03/14 12:19:47;;;;;;;2.33;1.58;;;;;;;;;;5080721;28;20425;-72
2022/03/14 12:22:14;;;;;;;1.48;1.38;;;;;;;;;;5073404;28;20036;-72
2022/03/14 12:24:39;;;;;;;2.17;1.25;;;;;;;;;;5072958;28;20028;-71
2022/03/14 12:27:16;;;;;;;1.83;1.55;;;;;;;;;;5074931;28;20078;-72
2022/03/14 12:29:42;;;;;;;0.60;0.60;;;;;;;;;;5067171;28;20039;-72
2022/03/14 12:32:31;;;;;;;1.33;1.23;;;;;;;;;;5072843;28;20032;-72
2022/03/14 12:35:45;;;;;;;5.22;2.78;;;;;;;;;;5065152;28;20035;-72
2022/03/14 12:38:13;;;;;;;2.28;1.85;;;;;;;;;;5068263;28;20125;-71
2022/03/14 12:40:41;;;;;;;1.30;1.30;;;;;;;;;;5072834;28;20028;-72
2022/03/14 12:43:07;;;;;;;3.67;2.15;;;;;;;;;;5079269;28;20069;-74
2022/03/14 12:45:41;;;;;;;1.25;1.15;;;;;;;;;;5078110;28;20024;-72
2022/03/14 12:48:19;;;;;;;2.45;1.58;;;;;;;;;;5073618;28;20024;-72
2022/03/14 12:50:50;;;;;;;1.88;1.75;;;;;;;;;;5075532;28;20039;-72
2022/03/14 12:53:36;;;;;;;1.65;1.08;;;;;;;;;;5067292;28;20033;-72
2022/03/14 12:56:03;;;;;;;0.88;0.88;;;;;;;;;;5070470;28;20039;-72
2022/03/14 12:58:30;;;;;;;1.45;0.43;;;;;;;;;;5070188;28;20547;-71
2022/03/14 13:01:00;;;;;;;1.52;0.98;;;;;;;;;;5069565;28;20482;-72
2022/03/14 13:03:30;;;;;;;1.50;1.20;;;;;;;;;;5063131;28;20021;-72
2022/03/14 13:05:56;;;;;;;5.38;2.08;;;;;;;;;;5065944;28;20045;-72
2022/03/14 13:08:22;;;;;;;1.48;1.35;;;;;;;;;;5082252;28;20371;-72
2022/03/14 13:10:53;;;;;;;3.67;2.38;;;;;;;;;;5078787;28;20081;-70
2022/03/14 13:13:23;;;;;;;1.75;1.45;;;;;;;;;;5074520;28;20056;-70
2022/03/14 13:16:01;;;;;;;2.28;1.65;;;;;;;;;;5078147;28;20195;-70
2022/03/14 13:18:27;;;;;;;2.15;1.33;;;;;;;;;;5071744;28;20375;-71
2022/03/14 13:20:53;;;;;;;1.20;1.00;;;;;;;;;;5077925;28;20024;-71
2022/03/14 13:23:20;;;;;;;4.88;3.05;;;;;;;;;;5079447;28;20111;-71
2022/03/14 13:25:50;;;;;;;1.77;1.45;;;;;;;;;;5072356;28;20038;-70
2022/03/14 13:28:26;;;;;;;0.75;0.75;;;;;;;;;;5069114;28;20031;-70
2022/03/14 13:30:53;;;;;;;1.38;1.13;;;;;;;;;;5074821;28;20054;-71
2022/03/14 13:33:24;;;;;;;1.95;1.83;;;;;;;;;;5075823;28;20118;-70
2022/03/14 13:35:50;;;;;;;2.03;1.67;;;;;;;;;;5080373;28;20380;-70
2022/03/14 13:38:29;;;;;;;5.88;2.05;;;;;;;;;;5077732;28;20040;-70
2022/03/14 13:40:56;;;;;;;0.88;0.75;;;;;;;;;;5079719;28;20056;-70
2022/03/14 13:43:22;;;;;;;2.95;1.95;;;;;;;;;;5075828;28;20844;-70
2022/03/14 13:45:48;;;;;;;4.53;1.10;;;;;;;;;;5079880;28;20096;-71
2022/03/14 13:48:23;;;;;;;1.75;1.55;;;;;;;;;;5069489;28;20546;-71
2022/03/14 13:50:49;;;;;;;3.90;1.80;;;;;;;;;;5071098;28;20368;-71
2022/03/14 13:53:24;;;;;;;1.77;1.67;;;;;;;;;;5074378;28;20052;-71
2022/03/14 13:55:53;;;;;;;0.60;0.60;;;;;;;;;;5090185;28;20061;-71
2022/03/14 13:58:26;;;;;;;1.35;1.25;;;;;;;;;;5073303;28;20032;-71
2022/03/14 14:00:55;;;;;;;1.88;1.40;;;;;;;;;;5078063;28;20025;-71
2022/03/14 14:03:27;;;;;;;1.58;1.27;;;;;;;;;;5074274;28;20036;-71
2022/03/14 14:05:53;;;;;;;4.43;1.70;;;;;;;;;;5081157;28;20104;-71
2022/03/14 14:08:31;;;;;;;2.97;1.25;;;;;;;;;;5081644;28;20024;-71
2022/03/14 14:10:58;;;;;;;2.95;0.75;;;;;;;;;;5078901;28;20039;-72
2022/03/14 14:13:25;;;;;;;1.85;1.10;;;;;;;;;;5081376;28;20603;-72
2022/03/14 14:15:52;;;;;;;0.95;0.95;;;;;;;;;;5078914;28;20383;-73
2022/03/14 14:18:23;;;;;;;3.05;2.13;;;;;;;;;;5090642;28;20056;-73
2022/03/14 14:20:50;;;;;;;2.10;1.98;;;;;;;;;;5075556;28;20248;-73
2022/03/14 14:23:20;;;;;;;1.75;1.00;;;;;;;;;;5084980;28;20111;-72
2022/03/14 14:25:46;;;;;;;1.83;1.63;;;;;;;;;;5089032;28;20051;-72
2022/03/14 14:28:13;;;;;;;6.72;1.65;;;;;;;;;;5089827;28;20065;-73
2022/03/14 14:30:46;;;;;;;1.45;1.35;;;;;;;;;;5074650;28;20032;-72
2022/03/14 14:33:16;;;;;;;3.13;1.50;;;;;;;;;;5085112;28;20051;-73
2022/03/14 14:35:43;;;;;;;1.80;1.65;;;;;;;;;;5087837;28;20028;-73
2022/03/14 14:38:10;;;;;;;0.98;0.93;;;;;;;;;;5090088;28;20016;-72
2022/03/14 14:40:42;;;;;;;1.85;1.40;;;;;;;;;;5085086;28;20016;-75
2022/03/14 14:43:09;;;;;;;4.22;2.40;;;;;;;;;;5071324;28;20064;-73
2022/03/14 14:45:35;;;;;;;2.28;2.08;;;;;;;;;;5090107;28;20081;-73